Orbital elements of SL-12 R/B(2)
| Launched | 4 July 1979 |
| Flight ended | – |
| Launch site | Tyuratam Missile and Space Center, Kazakhstan (Also known as Baikonur Cosmodrome) |
| Owner | Commonwealth of Independent States (former USSR) |
| NORAD ID | 14005 |
| Date fetched |
Epoch osculation |
Inc. [°] |
Ecc. | RA asc node [hr] |
Arg Peri. [°] |
Mean anom [°] |
Mean motion [rev/day] |
Abs. mag |
| Date fetched |
Epoch osculation |
Inc. [°] |
Ecc. | RA asc node [hr] |
Arg Peri. [°] |
Mean anom [°] |
Mean motion [rev/day] |
Abs. mag |
| 2026 May 05 17:57 | 2026 May 05 02:03:38 | 7.3663 | 0.00037 | 19.5512 | 291.3549 | 56.1327 | 0.97672 | – |
| 2026 May 04 17:57 | 2026 Apr 30 13:43:27 | 7.3776 | 0.00036 | 19.5537 | 291.6182 | 56.1327 | 0.97672 | – |
| 2026 May 03 17:57 | 2026 Apr 30 13:43:27 | 7.3776 | 0.00036 | 19.5537 | 291.6182 | 56.1327 | 0.97672 | – |
| 2026 May 02 17:57 | 2026 Apr 30 13:43:27 | 7.3776 | 0.00036 | 19.5537 | 291.6182 | 56.1327 | 0.97672 | – |
| 2026 May 01 17:56 | 2026 Apr 30 13:43:27 | 7.3776 | 0.00036 | 19.5537 | 291.6182 | 56.1327 | 0.97672 | – |
| 2026 Apr 30 17:56 | 2026 Apr 30 13:43:27 | 7.3776 | 0.00036 | 19.5537 | 291.6182 | 56.1327 | 0.97672 | – |
| 2026 Apr 29 17:57 | 2026 Apr 24 10:49:46 | 7.3926 | 0.00036 | 19.5570 | 292.1494 | 56.1327 | 0.97672 | – |
| 2026 Apr 28 17:56 | 2026 Apr 24 10:49:46 | 7.3926 | 0.00036 | 19.5570 | 292.1494 | 56.1327 | 0.97672 | – |
| 2026 Apr 27 17:58 | 2026 Apr 24 10:49:46 | 7.3926 | 0.00036 | 19.5570 | 292.1494 | 56.1327 | 0.97672 | – |
| 2026 Apr 26 17:58 | 2026 Apr 24 10:49:46 | 7.3926 | 0.00036 | 19.5570 | 292.1494 | 56.1327 | 0.97672 | – |
| 2026 Apr 25 17:58 | 2026 Apr 24 10:49:46 | 7.3926 | 0.00036 | 19.5570 | 292.1494 | 56.1327 | 0.97672 | – |
| 2026 Apr 24 17:59 | 2026 Apr 24 10:49:46 | 7.3926 | 0.00036 | 19.5570 | 292.1494 | 56.1327 | 0.97672 | – |
| 2026 Apr 23 17:57 | 2026 Apr 19 07:50:55 | 7.4048 | 0.00036 | 19.5600 | 293.9309 | 56.1327 | 0.97672 | – |
| 2026 Apr 22 17:57 | 2026 Apr 19 07:50:55 | 7.4048 | 0.00036 | 19.5600 | 293.9309 | 56.1327 | 0.97672 | – |
| 2026 Apr 21 17:57 | 2026 Apr 19 07:50:55 | 7.4048 | 0.00036 | 19.5600 | 293.9309 | 56.1327 | 0.97672 | – |
| 2026 Apr 20 17:57 | 2026 Apr 19 07:50:55 | 7.4048 | 0.00036 | 19.5600 | 293.9309 | 56.1327 | 0.97672 | – |
| 2026 Apr 19 17:58 | 2026 Apr 19 07:50:55 | 7.4048 | 0.00036 | 19.5600 | 293.9309 | 56.1327 | 0.97672 | – |
| 2026 Apr 18 17:56 | 2026 Apr 13 04:03:38 | 7.4197 | 0.00037 | 19.5634 | 296.2928 | 56.1327 | 0.97672 | – |
| 2026 Apr 16 17:57 | 2026 Apr 13 04:03:38 | 7.4197 | 0.00037 | 19.5634 | 296.2928 | 56.1327 | 0.97672 | – |
| 2026 Apr 14 17:57 | 2026 Apr 13 04:03:38 | 7.4197 | 0.00037 | 19.5634 | 296.2928 | 56.1327 | 0.97672 | – |
| 2026 Apr 13 17:57 | 2026 Apr 13 04:03:38 | 7.4197 | 0.00037 | 19.5634 | 296.2928 | 56.1327 | 0.97672 | – |
| 2026 Apr 12 17:57 | 2026 Apr 08 13:55:40 | 7.4309 | 0.00038 | 19.5659 | 297.1362 | 56.1327 | 0.97672 | – |
| 2026 Apr 11 17:57 | 2026 Apr 08 13:55:40 | 7.4309 | 0.00038 | 19.5659 | 297.1362 | 56.1327 | 0.97672 | – |
| 2026 Apr 10 17:58 | 2026 Apr 08 13:55:40 | 7.4309 | 0.00038 | 19.5659 | 297.1362 | 56.1327 | 0.97672 | – |
| 2026 Apr 09 18:01 | 2026 Apr 08 13:55:40 | 7.4309 | 0.00038 | 19.5659 | 297.1362 | 56.1327 | 0.97672 | – |
| 2026 Apr 08 17:57 | 2026 Apr 08 13:55:40 | 7.4309 | 0.00038 | 19.5659 | 297.1362 | 56.1327 | 0.97672 | – |